sensor_id;sensor_type;location;lat;lon;timestamp;pressure;altitude;pressure_sealevel;temperature;humidity
31183;BME280;17813;0.000;0.000;2024-03-02T00:00:57;98369.38;;;5.27;89.54
31183;BME280;17813;0.000;0.000;2024-03-02T00:03:24;98369.84;;;5.18;90.25
31183;BME280;17813;0.000;0.000;2024-03-02T00:05:54;98374.13;;;5.05;91.14
31183;BME280;17813;0.000;0.000;2024-03-02T00:08:25;98373.03;;;4.93;90.77
31183;BME280;17813;0.000;0.000;2024-03-02T00:10:57;98369.31;;;4.81;91.37
31183;BME280;17813;0.000;0.000;2024-03-02T00:13:24;98360.09;;;4.74;91.96
31183;BME280;17813;0.000;0.000;2024-03-02T00:15:55;98363.22;;;4.65;92.29
31183;BME280;17813;0.000;0.000;2024-03-02T00:18:32;75962.63;;;-142.58;92.29
31183;BME280;17813;0.000;0.000;2024-03-02T00:21:01;98356.63;;;4.58;92.91
31183;BME280;17813;0.000;0.000;2024-03-02T00:23:32;98356.53;;;4.44;93.45
31183;BME280;17813;0.000;0.000;2024-03-02T00:26:01;98363.41;;;4.46;94.00
31183;BME280;17813;0.000;0.000;2024-03-02T00:28:37;98351.38;;;4.42;93.72
31183;BME280;17813;0.000;0.000;2024-03-02T00:31:11;98352.97;;;4.45;93.23
31183;BME280;17813;0.000;0.000;2024-03-02T00:33:59;98351.28;;;4.44;93.71
31183;BME280;17813;0.000;0.000;2024-03-02T00:36:31;98345.94;;;4.45;93.45
31183;BME280;17813;0.000;0.000;2024-03-02T00:38:58;98349.25;;;4.49;92.59
31183;BME280;17813;0.000;0.000;2024-03-02T00:41:31;98339.59;;;4.49;92.11
31183;BME280;17813;0.000;0.000;2024-03-02T00:44:02;98338.66;;;4.50;92.26
31183;BME280;17813;0.000;0.000;2024-03-02T00:46:34;75962.63;;;-142.58;100.00
31183;BME280;17813;0.000;0.000;2024-03-02T00:49:05;98339.16;;;4.41;92.93
31183;BME280;17813;0.000;0.000;2024-03-02T00:51:40;98342.13;;;4.35;93.09
31183;BME280;17813;0.000;0.000;2024-03-02T00:54:09;98344.06;;;4.32;92.48
31183;BME280;17813;0.000;0.000;2024-03-02T00:56:39;98347.72;;;4.29;92.72
31183;BME280;17813;0.000;0.000;2024-03-02T00:59:09;98352.38;;;4.24;92.69
31183;BME280;17813;0.000;0.000;2024-03-02T01:01:38;98345.59;;;4.20;92.63
31183;BME280;17813;0.000;0.000;2024-03-02T01:04:10;98345.16;;;4.12;93.02
31183;BME280;17813;0.000;0.000;2024-03-02T01:06:39;98347.69;;;4.13;93.04
31183;BME280;17813;0.000;0.000;2024-03-02T01:09:10;98353.78;;;4.14;92.55
31183;BME280;17813;0.000;0.000;2024-03-02T01:11:41;98348.94;;;4.06;92.53
31183;BME280;17813;0.000;0.000;2024-03-02T01:14:12;76027.72;;;-143.88;92.53
31183;BME280;17813;0.000;0.000;2024-03-02T01:16:40;98358.84;;;4.01;92.60
31183;BME280;17813;0.000;0.000;2024-03-02T01:19:08;98352.06;;;3.97;92.57
31183;BME280;17813;0.000;0.000;2024-03-02T01:21:39;98355.94;;;3.90;92.97
31183;BME280;17813;0.000;0.000;2024-03-02T01:24:06;98352.72;;;3.85;93.36
31183;BME280;17813;0.000;0.000;2024-03-02T01:26:33;76058.25;;;-143.88;93.36
31183;BME280;17813;0.000;0.000;2024-03-02T01:29:00;76092.81;;;-143.88;94.55
31183;BME280;17813;0.000;0.000;2024-03-02T01:31:28;76100.94;;;-143.88;93.69
31183;BME280;17813;0.000;0.000;2024-03-02T01:33:57;76129.44;;;-142.58;93.73
31183;BME280;17813;0.000;0.000;2024-03-02T01:36:25;76123.34;;;-142.58;94.88
31183;BME280;17813;0.000;0.000;2024-03-02T01:38:54;98368.72;;;3.46;93.44
31183;BME280;17813;0.000;0.000;2024-03-02T01:44:45;76127.41;;;-143.88;93.78
31183;BME280;17813;0.000;0.000;2024-03-02T01:47:12;76145.72;;;-142.58;94.57
31183;BME280;17813;0.000;0.000;2024-03-02T01:49:40;76115.19;;;-143.88;94.90
31183;BME280;17813;0.000;0.000;2024-03-02T01:52:08;98368.25;;;3.55;95.14
31183;BME280;17813;0.000;0.000;2024-03-02T01:54:35;76109.09;;;-142.58;95.14
31183;BME280;17813;0.000;0.000;2024-03-02T01:57:03;76103.00;;;-143.88;94.93
31183;BME280;17813;0.000;0.000;2024-03-02T01:59:31;98355.28;;;3.69;94.29
31183;BME280;17813;0.000;0.000;2024-03-02T02:02:02;98360.28;;;3.74;94.29
31183;BME280;17813;0.000;0.000;2024-03-02T02:04:29;76078.56;;;-143.88;94.29
31183;BME280;17813;0.000;0.000;2024-03-02T02:06:57;98359.41;;;3.91;94.06
31183;BME280;17813;0.000;0.000;2024-03-02T02:09:24;98345.03;;;3.98;93.67
31183;BME280;17813;0.000;0.000;2024-03-02T02:11:53;98354.16;;;3.91;93.43
31183;BME280;17813;0.000;0.000;2024-03-02T02:14:20;98345.75;;;3.84;93.81
31183;BME280;17813;0.000;0.000;2024-03-02T02:16:48;76054.16;;;-143.88;93.81
31183;BME280;17813;0.000;0.000;2024-03-02T02:19:16;98349.66;;;3.60;94.48
31183;BME280;17813;0.000;0.000;2024-03-02T02:21:43;76088.75;;;-143.88;94.48
31183;BME280;17813;0.000;0.000;2024-03-02T02:24:13;76121.28;;;-143.88;94.05
31183;BME280;17813;0.000;0.000;2024-03-02T02:26:40;76129.44;;;-142.58;95.67
31183;BME280;17813;0.000;0.000;2024-03-02T02:29:08;76115.19;;;-143.88;95.56
31183;BME280;17813;0.000;0.000;2024-03-02T02:31:38;76133.50;;;-143.88;94.97
31183;BME280;17813;0.000;0.000;2024-03-02T02:34:07;76135.53;;;-142.58;94.72
31183;BME280;17813;0.000;0.000;2024-03-02T02:36:36;76090.78;;;-142.58;0.00
31183;BME280;17813;0.000;0.000;2024-03-02T02:39:08;76090.78;;;-143.88;94.59
31183;BME280;17813;0.000;0.000;2024-03-02T02:41:40;76103.00;;;-142.58;0.00
31183;BME280;17813;0.000;0.000;2024-03-02T02:44:08;76080.63;;;-143.88;94.39
31183;BME280;17813;0.000;0.000;2024-03-02T02:46:44;76103.00;;;-142.58;94.85
31183;BME280;17813;0.000;0.000;2024-03-02T02:49:12;76082.66;;;-143.88;95.01
31183;BME280;17813;0.000;0.000;2024-03-02T02:51:40;76098.91;;;-143.88;94.33
31183;BME280;17813;0.000;0.000;2024-03-02T02:54:08;76088.75;;;-143.88;94.12
31183;BME280;17813;0.000;0.000;2024-03-02T02:56:36;76084.69;;;-143.88;94.24
31183;BME280;17813;0.000;0.000;2024-03-02T02:59:03;76076.53;;;-143.88;93.96
31183;BME280;17813;0.000;0.000;2024-03-02T03:01:30;98330.28;;;3.79;94.13
31183;BME280;17813;0.000;0.000;2024-03-02T03:03:57;76048.06;;;-142.58;94.13
31183;BME280;17813;0.000;0.000;2024-03-02T03:06:24;76048.06;;;-142.58;94.55
31183;BME280;17813;0.000;0.000;2024-03-02T03:08:51;76048.06;;;-142.58;94.38
31183;BME280;17813;0.000;0.000;2024-03-02T03:11:19;98339.84;;;3.80;93.83
31183;BME280;17813;0.000;0.000;2024-03-02T03:13:46;98336.44;;;3.78;94.17
31183;BME280;17813;0.000;0.000;2024-03-02T03:16:13;98343.53;;;3.76;94.20
31183;BME280;17813;0.000;0.000;2024-03-02T03:18:39;76062.31;;;-142.58;94.20
31183;BME280;17813;0.000;0.000;2024-03-02T03:21:09;98347.09;;;3.75;94.25
31183;BME280;17813;0.000;0.000;2024-03-02T03:23:38;98347.09;;;-142.58;94.02
31183;BME280;17813;0.000;0.000;2024-03-02T03:26:05;76084.69;;;-142.58;94.03
31183;BME280;17813;0.000;0.000;2024-03-02T03:28:32;76062.31;;;-143.88;94.24
31183;BME280;17813;0.000;0.000;2024-03-02T03:31:00;98348.38;;;3.84;94.08
31183;BME280;17813;0.000;0.000;2024-03-02T03:33:29;98353.78;;;3.81;94.11
31183;BME280;17813;0.000;0.000;2024-03-02T03:35:57;98359.88;;;3.81;94.13
31183;BME280;17813;0.000;0.000;2024-03-02T03:38:25;98361.66;;;3.81;93.83
31183;BME280;17813;0.000;0.000;2024-03-02T03:40:52;98358.78;;;3.85;93.61
31183;BME280;17813;0.000;0.000;2024-03-02T03:43:19;98358.63;;;3.88;93.69
31183;BME280;17813;0.000;0.000;2024-03-02T03:45:47;98365.66;;;3.88;94.05
31183;BME280;17813;0.000;0.000;2024-03-02T03:48:14;98369.13;;;3.88;93.95
31183;BME280;17813;0.000;0.000;2024-03-02T03:50:42;98378.38;;;3.96;93.82
31183;BME280;17813;0.000;0.000;2024-03-02T03:53:09;98361.47;;;4.01;93.63
31183;BME280;17813;0.000;0.000;2024-03-02T03:55:37;98368.31;;;4.04;93.94
31183;BME280;17813;0.000;0.000;2024-03-02T03:58:06;98368.25;;;4.05;94.03
31183;BME280;17813;0.000;0.000;2024-03-02T04:00:33;98369.53;;;4.14;94.59
31183;BME280;17813;0.000;0.000;2024-03-02T04:03:00;98373.44;;;4.23;94.33
31183;BME280;17813;0.000;0.000;2024-03-02T04:05:28;98381.75;;;4.31;94.00
31183;BME280;17813;0.000;0.000;2024-03-02T04:07:54;98376.00;;;4.40;94.26
31183;BME280;17813;0.000;0.000;2024-03-02T04:10:21;98377.44;;;4.45;94.07
31183;BME280;17813;0.000;0.000;2024-03-02T04:12:50;75999.25;;;-142.58;0.00
31183;BME280;17813;0.000;0.000;2024-03-02T04:15:18;98377.53;;;4.60;93.69
31183;BME280;17813;0.000;0.000;2024-03-02T04:17:47;98388.63;;;4.65;93.91
31183;BME280;17813;0.000;0.000;2024-03-02T04:20:14;75982.97;;;-142.58;93.91
31183;BME280;17813;0.000;0.000;2024-03-02T04:22:41;98387.38;;;4.72;93.31
31183;BME280;17813;0.000;0.000;2024-03-02T04:25:09;98396.84;;;4.74;93.97
31183;BME280;17813;0.000;0.000;2024-03-02T04:27:36;98388.81;;;4.77;93.32
31183;BME280;17813;0.000;0.000;2024-03-02T04:30:05;98394.16;;;4.76;93.95
31183;BME280;17813;0.000;0.000;2024-03-02T04:32:34;98383.47;;;4.79;93.89
31183;BME280;17813;0.000;0.000;2024-03-02T04:35:03;98380.75;;;4.80;93.30
31183;BME280;17813;0.000;0.000;2024-03-02T04:37:33;98389.47;;;4.81;93.79
31183;BME280;17813;0.000;0.000;2024-03-02T04:40:00;98391.19;;;4.82;93.84
31183;BME280;17813;0.000;0.000;2024-03-02T04:42:30;98387.03;;;4.78;93.76
31183;BME280;17813;0.000;0.000;2024-03-02T04:44:58;98387.78;;;4.80;93.97
31183;BME280;17813;0.000;0.000;2024-03-02T04:47:25;98382.44;;;4.81;93.44
31183;BME280;17813;0.000;0.000;2024-03-02T04:49:53;98384.91;;;4.84;93.80
31183;BME280;17813;0.000;0.000;2024-03-02T04:52:20;98387.44;;;4.86;93.48
31183;BME280;17813;0.000;0.000;2024-03-02T04:54:47;98393.56;;;4.87;93.24
31183;BME280;17813;0.000;0.000;2024-03-02T04:57:33;98384.91;;;4.84;93.40
31183;BME280;17813;0.000;0.000;2024-03-02T05:00:01;98387.44;;;4.86;93.65
31183;BME280;17813;0.000;0.000;2024-03-02T05:02:29;98387.88;;;4.78;93.37
31183;BME280;17813;0.000;0.000;2024-03-02T05:04:56;98383.03;;;4.71;93.78
31183;BME280;17813;0.000;0.000;2024-03-02T05:07:24;98386.00;;;4.65;93.86
31183;BME280;17813;0.000;0.000;2024-03-02T05:09:51;98391.50;;;4.60;93.56
31183;BME280;17813;0.000;0.000;2024-03-02T05:12:18;98389.13;;;4.56;93.69
31183;BME280;17813;0.000;0.000;2024-03-02T05:15:04;98392.19;;;4.48;93.94
31183;BME280;17813;0.000;0.000;2024-03-02T05:17:32;98393.19;;;4.45;93.75
31183;BME280;17813;0.000;0.000;2024-03-02T05:20:01;98393.97;;;4.47;94.07
31183;BME280;17813;0.000;0.000;2024-03-02T05:22:27;98389.56;;;4.48;93.98
31183;BME280;17813;0.000;0.000;2024-03-02T05:24:55;98390.25;;;4.51;94.04
31183;BME280;17813;0.000;0.000;2024-03-02T05:27:24;98390.16;;;4.53;94.00
31183;BME280;17813;0.000;0.000;2024-03-02T05:29:51;98390.91;;;4.55;94.33
31183;BME280;17813;0.000;0.000;2024-03-02T05:32:18;98394.22;;;4.59;94.24
31183;BME280;17813;0.000;0.000;2024-03-02T05:34:44;98396.84;;;4.59;94.33
31183;BME280;17813;0.000;0.000;2024-03-02T05:37:13;98399.41;;;4.60;94.54
31183;BME280;17813;0.000;0.000;2024-03-02T05:39:40;98397.78;;;4.58;94.76
31183;BME280;17813;0.000;0.000;2024-03-02T05:42:07;98409.31;;;4.55;94.76
31183;BME280;17813;0.000;0.000;2024-03-02T05:44:41;76011.44;;;-142.58;94.76
31183;BME280;17813;0.000;0.000;2024-03-02T05:47:09;98411.84;;;4.57;95.16
31183;BME280;17813;0.000;0.000;2024-03-02T05:49:38;98412.28;;;4.65;94.54
31183;BME280;17813;0.000;0.000;2024-03-02T05:52:07;98411.00;;;4.72;94.65
31183;BME280;17813;0.000;0.000;2024-03-02T05:54:36;98416.00;;;4.76;94.48
31183;BME280;17813;0.000;0.000;2024-03-02T05:57:03;98420.06;;;4.82;94.70
31183;BME280;17813;0.000;0.000;2024-03-02T05:59:50;98422.28;;;4.90;94.35
31183;BME280;17813;0.000;0.000;2024-03-02T06:02:17;98422.03;;;4.94;94.59
31183;BME280;17813;0.000;0.000;2024-03-02T06:04:44;98422.44;;;5.02;94.25
31183;BME280;17813;0.000;0.000;2024-03-02T06:07:11;98423.88;;;5.08;93.85
31183;BME280;17813;0.000;0.000;2024-03-02T06:09:41;98423.78;;;5.09;94.14
31183;BME280;17813;0.000;0.000;2024-03-02T06:12:11;98429.47;;;5.17;94.15
31183;BME280;17813;0.000;0.000;2024-03-02T06:14:39;98434.22;;;5.27;93.83
31183;BME280;17813;0.000;0.000;2024-03-02T06:17:06;98431.25;;;5.33;93.65
31183;BME280;17813;0.000;0.000;2024-03-02T06:19:35;98424.97;;;5.35;94.01
31183;BME280;17813;0.000;0.000;2024-03-02T06:22:04;98435.13;;;5.41;93.24
31183;BME280;17813;0.000;0.000;2024-03-02T06:24:32;98433.94;;;5.47;93.61
31183;BME280;17813;0.000;0.000;2024-03-02T06:27:00;75911.78;;;-142.58;93.61
31183;BME280;17813;0.000;0.000;2024-03-02T06:29:28;98438.50;;;5.59;93.66
31183;BME280;17813;0.000;0.000;2024-03-02T06:31:56;98438.31;;;5.62;93.24
31183;BME280;17813;0.000;0.000;2024-03-02T06:34:27;98439.25;;;5.61;92.82
31183;BME280;17813;0.000;0.000;2024-03-02T06:36:58;98439.81;;;5.66;93.25
31183;BME280;17813;0.000;0.000;2024-03-02T06:39:28;98431.00;;;5.67;93.43
31183;BME280;17813;0.000;0.000;2024-03-02T06:41:56;98432.34;;;5.74;93.41
31183;BME280;17813;0.000;0.000;2024-03-02T06:44:24;98435.53;;;5.79;93.72
31183;BME280;17813;0.000;0.000;2024-03-02T06:46:53;98429.06;;;5.85;93.30
31183;BME280;17813;0.000;0.000;2024-03-02T06:49:22;98434.09;;;5.90;93.17
31183;BME280;17813;0.000;0.000;2024-03-02T06:51:50;98431.84;;;5.98;93.51
31183;BME280;17813;0.000;0.000;2024-03-02T06:54:19;98436.28;;;5.97;93.34
31183;BME280;17813;0.000;0.000;2024-03-02T06:56:47;98433.94;;;6.07;93.18
31183;BME280;17813;0.000;0.000;2024-03-02T06:59:16;98433.75;;;6.10;93.08
31183;BME280;17813;0.000;0.000;2024-03-02T07:01:44;98436.50;;;6.23;93.20
31183;BME280;17813;0.000;0.000;2024-03-02T07:04:14;98443.16;;;6.28;92.75
31183;BME280;17813;0.000;0.000;2024-03-02T07:06:42;98441.00;;;6.35;92.49
31183;BME280;17813;0.000;0.000;2024-03-02T07:09:11;98435.47;;;6.39;92.77
31183;BME280;17813;0.000;0.000;2024-03-02T07:11:40;98435.28;;;6.42;92.38
31183;BME280;17813;0.000;0.000;2024-03-02T07:14:08;98433.31;;;6.46;92.42
31183;BME280;17813;0.000;0.000;2024-03-02T07:16:38;98435.09;;;6.45;92.30
31183;BME280;17813;0.000;0.000;2024-03-02T07:19:32;98421.63;;;6.50;92.93
31183;BME280;17813;0.000;0.000;2024-03-02T07:22:00;98424.81;;;6.55;92.47
31183;BME280;17813;0.000;0.000;2024-03-02T07:24:28;98431.31;;;6.64;92.09
31183;BME280;17813;0.000;0.000;2024-03-02T07:26:58;98416.91;;;6.69;92.03
31183;BME280;17813;0.000;0.000;2024-03-02T07:29:26;98421.59;;;6.78;92.11
31183;BME280;17813;0.000;0.000;2024-03-02T07:31:54;98424.59;;;6.87;92.14
31183;BME280;17813;0.000;0.000;2024-03-02T07:34:22;98425.06;;;6.93;91.98
31183;BME280;17813;0.000;0.000;2024-03-02T07:36:50;98427.31;;;6.99;91.80
31183;BME280;17813;0.000;0.000;2024-03-02T07:39:19;98427.84;;;7.04;91.75
31183;BME280;17813;0.000;0.000;2024-03-02T07:41:52;98433.59;;;7.11;91.82
31183;BME280;17813;0.000;0.000;2024-03-02T07:44:19;98431.69;;;7.13;91.68
31183;BME280;17813;0.000;0.000;2024-03-02T07:46:47;98432.13;;;7.20;92.01
31183;BME280;17813;0.000;0.000;2024-03-02T07:49:21;98432.59;;;7.26;92.00
31183;BME280;17813;0.000;0.000;2024-03-02T07:51:50;98433.69;;;7.36;91.79
31183;BME280;17813;0.000;0.000;2024-03-02T07:54:17;98436.56;;;7.46;91.54
31183;BME280;17813;0.000;0.000;2024-03-02T07:56:47;98446.28;;;7.46;91.34
31183;BME280;17813;0.000;0.000;2024-03-02T07:59:19;98441.00;;;7.46;91.01
31183;BME280;17813;0.000;0.000;2024-03-02T08:01:48;98445.13;;;7.50;91.10
31183;BME280;17813;0.000;0.000;2024-03-02T08:04:18;98447.25;;;7.57;91.33
31183;BME280;17813;0.000;0.000;2024-03-02T08:06:47;98447.50;;;7.67;91.35
31183;BME280;17813;0.000;0.000;2024-03-02T08:09:14;98438.22;;;7.74;91.04
31183;BME280;17813;0.000;0.000;2024-03-02T08:11:42;98449.78;;;7.86;91.07
31183;BME280;17813;0.000;0.000;2024-03-02T08:14:14;98446.44;;;7.96;90.73
31183;BME280;17813;0.000;0.000;2024-03-02T08:16:46;98444.22;;;8.03;90.25
31183;BME280;17813;0.000;0.000;2024-03-02T08:19:15;98445.19;;;8.15;90.29
31183;BME280;17813;0.000;0.000;2024-03-02T08:21:44;98452.78;;;8.19;89.89
31183;BME280;17813;0.000;0.000;2024-03-02T08:24:15;98437.91;;;8.18;89.86
31183;BME280;17813;0.000;0.000;2024-03-02T08:26:46;98455.75;;;8.27;89.70
31183;BME280;17813;0.000;0.000;2024-03-02T08:29:15;98454.91;;;8.27;89.81
31183;BME280;17813;0.000;0.000;2024-03-02T08:31:43;98451.00;;;8.32;89.91
31183;BME280;17813;0.000;0.000;2024-03-02T08:34:10;98446.91;;;8.41;89.79
31183;BME280;17813;0.000;0.000;2024-03-02T08:36:38;98452.31;;;8.52;90.00
31183;BME280;17813;0.000;0.000;2024-03-02T08:39:05;98454.31;;;8.61;89.54
31183;BME280;17813;0.000;0.000;2024-03-02T08:41:34;98457.56;;;8.65;88.94
31183;BME280;17813;0.000;0.000;2024-03-02T08:44:04;98456.94;;;8.61;88.96
31183;BME280;17813;0.000;0.000;2024-03-02T08:46:31;98446.16;;;8.64;88.76
31183;BME280;17813;0.000;0.000;2024-03-02T08:48:59;98449.31;;;8.69;89.04
31183;BME280;17813;0.000;0.000;2024-03-02T08:51:31;98452.59;;;8.73;88.75
31183;BME280;17813;0.000;0.000;2024-03-02T08:54:00;98452.69;;;8.84;89.22
31183;BME280;17813;0.000;0.000;2024-03-02T08:56:29;98458.28;;;8.92;88.98
31183;BME280;17813;0.000;0.000;2024-03-02T08:58:57;98464.47;;;9.04;88.72
31183;BME280;17813;0.000;0.000;2024-03-02T09:01:25;98460.13;;;9.16;88.76
31183;BME280;17813;0.000;0.000;2024-03-02T09:03:53;98469.06;;;9.26;88.05
31183;BME280;17813;0.000;0.000;2024-03-02T09:06:22;98465.88;;;9.33;87.79
31183;BME280;17813;0.000;0.000;2024-03-02T09:08:49;98466.16;;;9.42;88.00
31183;BME280;17813;0.000;0.000;2024-03-02T09:11:19;98469.19;;;9.48;88.07
31183;BME280;17813;0.000;0.000;2024-03-02T09:13:48;98463.00;;;9.60;87.81
31183;BME280;17813;0.000;0.000;2024-03-02T09:16:20;98470.72;;;9.63;86.36
31183;BME280;17813;0.000;0.000;2024-03-02T09:18:49;98467.84;;;9.66;86.56
31183;BME280;17813;0.000;0.000;2024-03-02T09:21:17;98475.84;;;9.78;85.28
31183;BME280;17813;0.000;0.000;2024-03-02T09:23:44;98470.31;;;9.81;85.42
31183;BME280;17813;0.000;0.000;2024-03-02T09:26:12;98468.63;;;9.80;84.55
31183;BME280;17813;0.000;0.000;2024-03-02T09:28:44;98472.78;;;9.95;84.73
31183;BME280;17813;0.000;0.000;2024-03-02T09:31:12;98477.72;;;9.99;84.63
31183;BME280;17813;0.000;0.000;2024-03-02T09:33:40;98482.69;;;10.04;84.10
31183;BME280;17813;0.000;0.000;2024-03-02T09:36:23;98484.38;;;10.05;83.32
31183;BME280;17813;0.000;0.000;2024-03-02T09:38:52;98478.38;;;10.14;84.31
31183;BME280;17813;0.000;0.000;2024-03-02T09:41:21;98480.59;;;10.20;83.41
31183;BME280;17813;0.000;0.000;2024-03-02T09:43:52;98486.03;;;10.30;83.14
31183;BME280;17813;0.000;0.000;2024-03-02T09:46:24;98483.16;;;10.33;82.44
31183;BME280;17813;0.000;0.000;2024-03-02T09:48:55;98485.25;;;10.41;82.97
31183;BME280;17813;0.000;0.000;2024-03-02T09:51:31;98487.19;;;10.50;81.75
31183;BME280;17813;0.000;0.000;2024-03-02T09:54:02;98477.94;;;10.55;81.09
31183;BME280;17813;0.000;0.000;2024-03-02T09:56:30;98480.47;;;10.68;80.85
31183;BME280;17813;0.000;0.000;2024-03-02T09:58:57;98481.69;;;10.75;79.31
31183;BME280;17813;0.000;0.000;2024-03-02T10:01:31;98482.03;;;10.82;80.03
31183;BME280;17813;0.000;0.000;2024-03-02T10:04:02;98482.75;;;10.84;79.69
31183;BME280;17813;0.000;0.000;2024-03-02T10:06:30;98479.75;;;11.00;79.23
31183;BME280;17813;0.000;0.000;2024-03-02T10:08:58;98485.75;;;11.13;78.04
31183;BME280;17813;0.000;0.000;2024-03-02T10:14:18;98485.03;;;11.22;77.03
31183;BME280;17813;0.000;0.000;2024-03-02T10:16:49;98476.56;;;11.39;76.57
31183;BME280;17813;0.000;0.000;2024-03-02T10:19:18;98478.66;;;11.79;76.28
31183;BME280;17813;0.000;0.000;2024-03-02T10:21:49;98472.66;;;12.91;73.56
31183;BME280;17813;0.000;0.000;2024-03-02T10:24:19;98464.34;;;14.51;67.21
31183;BME280;17813;0.000;0.000;2024-03-02T10:26:49;98454.44;;;16.34;61.82
31183;BME280;17813;0.000;0.000;2024-03-02T10:29:19;98452.09;;;17.09;55.17
31183;BME280;17813;0.000;0.000;2024-03-02T10:31:48;98446.97;;;17.23;54.96
31183;BME280;17813;0.000;0.000;2024-03-02T10:34:15;98450.69;;;17.89;52.40
31183;BME280;17813;0.000;0.000;2024-03-02T10:36:44;98435.25;;;18.72;51.82
31183;BME280;17813;0.000;0.000;2024-03-02T10:39:17;98434.78;;;19.55;49.80
31183;BME280;17813;0.000;0.000;2024-03-02T10:41:46;98432.50;;;19.98;45.52
31183;BME280;17813;0.000;0.000;2024-03-02T10:44:17;98431.06;;;20.10;44.94
31183;BME280;17813;0.000;0.000;2024-03-02T10:46:48;98432.53;;;20.35;43.71
31183;BME280;17813;0.000;0.000;2024-03-02T10:49:17;98429.66;;;20.37;44.04
31183;BME280;17813;0.000;0.000;2024-03-02T10:51:46;98425.88;;;20.83;43.93
31183;BME280;17813;0.000;0.000;2024-03-02T10:54:14;98420.34;;;20.77;42.36
31183;BME280;17813;0.000;0.000;2024-03-02T10:56:44;98428.34;;;20.33;42.74
31183;BME280;17813;0.000;0.000;2024-03-02T10:59:20;98423.41;;;19.06;44.07
31183;BME280;17813;0.000;0.000;2024-03-02T11:01:50;98424.88;;;18.45;45.20
31183;BME280;17813;0.000;0.000;2024-03-02T11:04:25;98430.44;;;18.35;47.18
31183;BME280;17813;0.000;0.000;2024-03-02T11:09:34;98417.91;;;18.91;45.60
31183;BME280;17813;0.000;0.000;2024-03-02T11:12:19;98411.78;;;19.13;44.03
31183;BME280;17813;0.000;0.000;2024-03-02T11:14:52;98403.06;;;19.73;43.12
31183;BME280;17813;0.000;0.000;2024-03-02T11:17:23;98410.84;;;19.91;42.85
31183;BME280;17813;0.000;0.000;2024-03-02T11:19:52;98391.44;;;20.18;42.39
31183;BME280;17813;0.000;0.000;2024-03-02T11:22:20;98398.03;;;20.53;42.38
31183;BME280;17813;0.000;0.000;2024-03-02T11:24:52;98391.28;;;20.72;41.36
31183;BME280;17813;0.000;0.000;2024-03-02T11:33:05;98395.91;;;18.95;44.24
31183;BME280;17813;0.000;0.000;2024-03-02T11:35:41;98393.97;;;19.12;44.37
31183;BME280;17813;0.000;0.000;2024-03-02T11:38:11;98393.63;;;19.46;44.61
31183;BME280;17813;0.000;0.000;2024-03-02T11:40:43;98387.03;;;19.57;43.24
31183;BME280;17813;0.000;0.000;2024-03-02T11:43:11;98397.25;;;19.31;43.23
31183;BME280;17813;0.000;0.000;2024-03-02T11:45:43;98397.66;;;18.72;43.28
31183;BME280;17813;0.000;0.000;2024-03-02T11:48:15;98388.16;;;18.29;43.92
31183;BME280;17813;0.000;0.000;2024-03-02T11:50:48;98387.81;;;17.75;45.83
31183;BME280;17813;0.000;0.000;2024-03-02T11:53:18;98387.75;;;17.51;46.09
31183;BME280;17813;0.000;0.000;2024-03-02T11:55:46;98392.84;;;17.12;46.89
31183;BME280;17813;0.000;0.000;2024-03-02T11:58:15;98385.31;;;17.15;48.57
31183;BME280;17813;0.000;0.000;2024-03-02T12:00:52;98380.31;;;17.20;48.62
31183;BME280;17813;0.000;0.000;2024-03-02T12:03:24;98377.47;;;17.22;48.14
31183;BME280;17813;0.000;0.000;2024-03-02T12:05:54;98377.41;;;17.06;49.51
31183;BME280;17813;0.000;0.000;2024-03-02T12:08:24;98376.50;;;16.89;49.75
31183;BME280;17813;0.000;0.000;2024-03-02T12:11:00;98374.31;;;16.84;49.47
31183;BME280;17813;0.000;0.000;2024-03-02T12:13:27;98372.31;;;16.86;49.48
31183;BME280;17813;0.000;0.000;2024-03-02T12:15:57;98371.47;;;16.86;49.49
31183;BME280;17813;0.000;0.000;2024-03-02T12:18:29;98362.31;;;16.96;49.38
31183;BME280;17813;0.000;0.000;2024-03-02T12:20:57;98369.28;;;16.81;48.54
31183;BME280;17813;0.000;0.000;2024-03-02T12:23:25;98364.31;;;16.60;49.59
31183;BME280;17813;0.000;0.000;2024-03-02T12:25:53;98365.72;;;16.47;50.09
31183;BME280;17813;0.000;0.000;2024-03-02T12:28:24;98376.91;;;16.42;50.72
31183;BME280;17813;0.000;0.000;2024-03-02T12:30:51;98374.59;;;16.47;50.58
31183;BME280;17813;0.000;0.000;2024-03-02T12:33:18;98366.47;;;16.57;49.81
31183;BME280;17813;0.000;0.000;2024-03-02T12:35:46;98366.81;;;16.62;49.74
31183;BME280;17813;0.000;0.000;2024-03-02T12:38:15;98366.22;;;16.42;50.37
31183;BME280;17813;0.000;0.000;2024-03-02T12:40:42;98353.34;;;16.46;49.29
31183;BME280;17813;0.000;0.000;2024-03-02T12:43:09;98352.41;;;16.55;50.82
31183;BME280;17813;0.000;0.000;2024-03-02T12:45:37;98345.88;;;16.57;49.13
31183;BME280;17813;0.000;0.000;2024-03-02T12:48:05;98348.75;;;16.04;49.22
31183;BME280;17813;0.000;0.000;2024-03-02T12:50:34;98356.63;;;16.05;51.04
31183;BME280;17813;0.000;0.000;2024-03-02T12:53:02;98346.13;;;16.12;50.75
31183;BME280;17813;0.000;0.000;2024-03-02T12:55:30;98332.53;;;16.05;50.03
31183;BME280;17813;0.000;0.000;2024-03-02T12:57:58;98327.25;;;16.14;50.95
31183;BME280;17813;0.000;0.000;2024-03-02T13:00:26;98332.69;;;16.30;51.02
31183;BME280;17813;0.000;0.000;2024-03-02T13:02:54;98338.84;;;16.56;50.64
31183;BME280;17813;0.000;0.000;2024-03-02T13:05:30;98333.88;;;16.61;49.65
31183;BME280;17813;0.000;0.000;2024-03-02T13:08:00;98330.44;;;16.43;48.54
31183;BME280;17813;0.000;0.000;2024-03-02T13:10:30;98333.69;;;16.29;48.83
31183;BME280;17813;0.000;0.000;2024-03-02T13:12:59;98333.00;;;16.27;48.70
31183;BME280;17813;0.000;0.000;2024-03-02T13:15:34;98333.00;;;16.27;49.06
31183;BME280;17813;0.000;0.000;2024-03-02T13:18:02;98330.06;;;16.38;48.90
31183;BME280;17813;0.000;0.000;2024-03-02T13:20:31;98320.38;;;16.37;48.30
31183;BME280;17813;0.000;0.000;2024-03-02T13:23:01;98319.97;;;16.24;48.35
31183;BME280;17813;0.000;0.000;2024-03-02T13:25:28;98326.66;;;16.28;48.76
31183;BME280;17813;0.000;0.000;2024-03-02T13:27:57;98324.63;;;16.22;48.44
31183;BME280;17813;0.000;0.000;2024-03-02T13:30:35;98320.44;;;16.19;47.42
31183;BME280;17813;0.000;0.000;2024-03-02T13:33:05;98316.56;;;16.14;48.56
31183;BME280;17813;0.000;0.000;2024-03-02T13:35:34;98317.03;;;16.09;48.22
31183;BME280;17813;0.000;0.000;2024-03-02T13:38:05;98323.63;;;15.97;48.51
31183;BME280;17813;0.000;0.000;2024-03-02T13:40:35;98326.41;;;15.87;49.25